Smit Humber — CFN6647 — position and weather

sailwx.info

Track history (hours):
 
Tides and Currents Weather Stations Pressure Air Temp Water Temp Dewpoint Dewpoint Depression Visibility Wind Speed Wind Dir Waves Ship Positions

Smit Humber

Last reported at 2018-Feb-26 01:02 UTC. Time now 2018-Feb-26 02:01 UTC.
Position N 54°18' W 130°21'.

Length 31 m; draft 5.1 m.

Type: Tug. MMSI: 316020345.

Date/timePositionNaut miles runAvg speedWind from/ knotsBaromVisibWave heightAir tempDewpointWater temp
2018-Feb-26 01:02N 54°18' W 130°21'0 0.0
2018-Feb-26 00:56N 54°18' W 130°21'0 0.0
2018-Feb-26 00:26N 54°18' W 130°21'0 0.0
2018-Feb-25 23:50N 54°18' W 130°21'0 0.0
2018-Feb-25 23:26N 54°18' W 130°21'0 0.0
2018-Feb-25 22:50N 54°18' W 130°21'0 0.0
2018-Feb-25 19:36N 54°18' W 130°21'0 1.5
2018-Feb-25 19:30N 54°18' W 130°22'4 8.0
2018-Feb-25 19:00N 54°14' W 130°20'3 6.7
2018-Feb-25 18:30N 54°17' W 130°22'1 0.2
2018-Feb-25 13:45N 54°18' W 130°21'0 0.0
2018-Feb-25 13:27N 54°18' W 130°21'0 0.0
2018-Feb-25 12:51N 54°18' W 130°21'0 0.0
2018-Feb-25 12:27N 54°18' W 130°21'0 0.0
2018-Feb-25 11:51N 54°18' W 130°21'0 0.0
2018-Feb-25 11:09N 54°18' W 130°21'0 0.0
2018-Feb-25 10:57N 54°18' W 130°21'0 0.0
2018-Feb-25 10:27N 54°18' W 130°21'0 0.0
2018-Feb-25 09:57N 54°18' W 130°21'0 0.0
2018-Feb-25 09:27N 54°18' W 130°21'0 0.0
2018-Feb-25 08:57N 54°18' W 130°21'0 0.0
2018-Feb-25 08:27N 54°18' W 130°21'0 0.0
2018-Feb-25 07:51N 54°18' W 130°21'0 0.0
2018-Feb-25 07:27N 54°18' W 130°21'0 0.0
2018-Feb-25 06:45N 54°18' W 130°21'0 0.0
2018-Feb-25 06:27N 54°18' W 130°21'0 0.0
2018-Feb-25 05:57N 54°18' W 130°21'0 0.0
2018-Feb-25 05:21N 54°18' W 130°21'0 0.0
2018-Feb-25 04:57N 54°18' W 130°21'0 0.0
2018-Feb-25 04:27N 54°18' W 130°21'0 0.0
2018-Feb-25 03:57N 54°18' W 130°21'0 0.0
2018-Feb-25 03:27N 54°18' W 130°21'0 0.0
2018-Feb-25 02:57N 54°18' W 130°21'0 0.0
2018-Feb-25 02:27N 54°18' W 130°21'0 0.0
2018-Feb-25 02:00N 54°18' W 130°21'0 0.0
2018-Feb-25 01:30N 54°18' W 130°21'0 0.0
2018-Feb-25 00:57N 54°18' W 130°21'0 0.0
2018-Feb-25 00:27N 54°18' W 130°21'0 0.0
2018-Feb-25 00:00N 54°18' W 130°21'0 0.0
2018-Feb-24 23:30N 54°18' W 130°21'0 0.0
2018-Feb-24 22:57N 54°18' W 130°21'0 0.0
2018-Feb-24 22:30N 54°18' W 130°21'0 0.0
2018-Feb-24 22:00N 54°18' W 130°21'0 0.0
2018-Feb-24 21:30N 54°18' W 130°21'0 0.0
2018-Feb-24 20:51N 54°18' W 130°21'0 0.0
2018-Feb-24 20:27N 54°18' W 130°21'0 0.0
2018-Feb-24 19:57N 54°18' W 130°21'0 0.0
2018-Feb-24 19:27N 54°18' W 130°21'0 0.0
2018-Feb-24 18:51N 54°18' W 130°21'0 0.0
2018-Feb-24 18:27N 54°18' W 130°21'0 0.0
2018-Feb-24 17:57N 54°18' W 130°21'3 5.8
2018-Feb-24 17:30N 54°15' W 130°21'1 2.5
2018-Feb-24 16:57N 54°14' W 130°20'0 0.0
2018-Feb-24 16:30N 54°14' W 130°20'0 0.1
2018-Feb-24 16:00N 54°14' W 130°20'1 1.4
2018-Feb-24 15:30N 54°13' W 130°21'0 0.3
2018-Feb-24 15:00N 54°13' W 130°21'4 6.6
2018-Feb-24 14:22N 54°18' W 130°21'0 0.0
2018-Feb-24 13:55N 54°18' W 130°21'0 0.0
2018-Feb-24 13:10N 54°18' W 130°21'0 0.0
2018-Feb-24 12:58N 54°18' W 130°21'0 0.0
2018-Feb-24 12:28N 54°18' W 130°21'0 0.0
2018-Feb-24 11:52N 54°18' W 130°21'0 0.0
2018-Feb-24 11:28N 54°18' W 130°21'0 0.0
2018-Feb-24 10:10N 54°18' W 130°21'0 0.0
2018-Feb-24 07:40N 54°18' W 130°21'0 0.0
2018-Feb-24 07:16N 54°18' W 130°21'0 0.0
2018-Feb-24 06:52N 54°18' W 130°21'0 0.0
2018-Feb-24 06:16N 54°18' W 130°21'0 0.3
2018-Feb-24 05:55N 54°18' W 130°21'4 8.6
2018-Feb-24 05:29N 54°14' W 130°20'0 0.0
2018-Feb-24 04:59N 54°14' W 130°20'0 1.0
2018-Feb-24 04:30N 54°14' W 130°21'0 0.8
2018-Feb-24 03:59N 54°14' W 130°20'0 0.1
2018-Feb-24 03:28N 54°14' W 130°20'3 6.6
2018-Feb-24 03:01N 54°13' W 130°25'2 4.8
2018-Feb-24 02:30N 54°13' W 130°29'510.8
2018-Feb-24 02:00N 54°16' W 130°21'2 2.3
2018-Feb-24 01:08N 54°18' W 130°21'0 0.0
2018-Feb-24 00:50N 54°18' W 130°21'0 0.0
2018-Feb-24 00:26N 54°18' W 130°21'0 0.0
2018-Feb-23 23:56N 54°18' W 130°21'0 0.0
2018-Feb-23 23:26N 54°18' W 130°21'0 0.0
2018-Feb-23 22:56N 54°18' W 130°21'0 0.0
2018-Feb-23 22:26N 54°18' W 130°21'0 0.0
2018-Feb-23 21:56N 54°18' W 130°21'0 0.0
2018-Feb-23 21:29N 54°18' W 130°21'0 0.0
2018-Feb-23 20:56N 54°18' W 130°21'0 0.0
2018-Feb-23 20:29N 54°18' W 130°21'0 0.0
2018-Feb-23 19:59N 54°18' W 130°21'0 0.0
2018-Feb-23 19:26N 54°18' W 130°21'0 1.1
2018-Feb-23 19:00N 54°17' W 130°22'0 0.0
2018-Feb-23 18:30N 54°17' W 130°22'1 1.2
2018-Feb-23 17:59N 54°18' W 130°22'0 0.6
2018-Feb-23 17:29N 54°18' W 130°22'0 0.2
2018-Feb-23 16:59N 54°18' W 130°22'0 0.4
2018-Feb-23 16:29N 54°18' W 130°22'1 1.7
2018-Feb-23 16:00N 54°18' W 130°22'5 9.3
2018-Feb-23 15:30N 54°13' W 130°21'1 1.5
2018-Feb-23 15:00N 54°14' W 130°21'4 6.7
2018-Feb-23 14:25N 54°18' W 130°21'0 0.1
2018-Feb-23 13:55N 54°18' W 130°21'0 0.0
2018-Feb-23 13:22N 54°18' W 130°21'0 0.0
2018-Feb-23 12:55N 54°18' W 130°21'0 0.1
2018-Feb-23 12:28N 54°18' W 130°21'0 0.0
2018-Feb-23 11:58N 54°18' W 130°21'0 0.1
2018-Feb-23 11:28N 54°18' W 130°21'0 0.1
2018-Feb-23 10:55N 54°18' W 130°21'0 0.0
2018-Feb-23 10:28N 54°18' W 130°21'0 0.0
2018-Feb-23 09:55N 54°18' W 130°21'0 0.0
2018-Feb-23 09:28N 54°18' W 130°21'0 0.0
2018-Feb-23 08:52N 54°18' W 130°21'0 0.0
2018-Feb-23 08:28N 54°18' W 130°21'0 0.0
2018-Feb-23 07:58N 54°18' W 130°21'0 0.0
2018-Feb-23 07:28N 54°18' W 130°21'0 0.0
2018-Feb-23 06:58N 54°18' W 130°21'0 0.0
2018-Feb-23 06:28N 54°18' W 130°21'0 0.0
2018-Feb-23 05:55N 54°18' W 130°21'0 0.0
2018-Feb-23 05:28N 54°18' W 130°21'0 0.0
2018-Feb-23 04:58N 54°18' W 130°21'0 0.0
2018-Feb-23 04:25N 54°18' W 130°21'0 0.0
2018-Feb-23 03:58N 54°18' W 130°21'0 0.0
2018-Feb-23 03:25N 54°18' W 130°21'0 0.0
2018-Feb-23 02:58N 54°18' W 130°21'0 0.0
2018-Feb-23 02:28N 54°18' W 130°21'0 0.0
2018-Feb-23 01:58N 54°18' W 130°21'0 0.0
2018-Feb-23 01:19N 54°18' W 130°21'0 0.0
2018-Feb-23 00:58N 54°18' W 130°21'0 0.0
2018-Feb-23 00:28N 54°18' W 130°21'0 0.0
2018-Feb-22 23:58N 54°18' W 130°21'0 0.0
2018-Feb-22 23:28N 54°18' W 130°21'0 0.0
2018-Feb-22 22:52N 54°18' W 130°21'0 0.0
2018-Feb-22 22:28N 54°18' W 130°21'0 0.0
2018-Feb-22 21:19N 54°18' W 130°21'0 0.0
2018-Feb-22 20:58N 54°18' W 130°21'0 0.1
2018-Feb-22 20:22N 54°18' W 130°21'0 0.1
2018-Feb-22 19:46N 54°18' W 130°21'0 0.0
2018-Feb-22 19:28N 54°18' W 130°21'0 0.0
2018-Feb-22 18:52N 54°18' W 130°21'0 0.0
2018-Feb-22 18:28N 54°18' W 130°21'0 0.0
2018-Feb-22 17:58N 54°18' W 130°21'0 0.0
2018-Feb-22 17:28N 54°18' W 130°21'2 5.2
2018-Feb-22 17:00N 54°15' W 130°21'1 2.7
2018-Feb-22 16:30N 54°14' W 130°20'0 0.7
2018-Feb-22 16:00N 54°14' W 130°21'0 0.6
2018-Feb-22 15:28N 54°14' W 130°20'0 0.0
2018-Feb-22 14:59N 54°14' W 130°20'0 0.8
2018-Feb-22 14:29N 54°14' W 130°21'0 0.1
2018-Feb-22 13:59N 54°14' W 130°21'2 5.1
2018-Feb-22 13:30N 54°16' W 130°22'1 1.9
2018-Feb-22 12:55N 54°18' W 130°21'0 0.0
2018-Feb-22 12:28N 54°18' W 130°21'0 0.0
2018-Feb-22 11:58N 54°18' W 130°21'0 0.0
2018-Feb-22 11:28N 54°18' W 130°21'0 0.0
2018-Feb-22 10:58N 54°18' W 130°21'0 0.0
2018-Feb-22 10:28N 54°18' W 130°21'0 0.0
2018-Feb-22 09:58N 54°18' W 130°21'0 0.0
2018-Feb-22 09:28N 54°18' W 130°21'0 0.0
2018-Feb-22 08:58N 54°18' W 130°21'0 0.0
2018-Feb-22 08:28N 54°18' W 130°21'0 0.0
2018-Feb-22 07:55N 54°18' W 130°21'0 0.0
2018-Feb-22 07:28N 54°18' W 130°21'0 0.0
2018-Feb-22 06:58N 54°18' W 130°21'0 0.0
2018-Feb-22 06:28N 54°18' W 130°21'0 0.0
2018-Feb-22 05:58N 54°18' W 130°21'0 0.0
2018-Feb-22 05:28N 54°18' W 130°21'0 0.0
2018-Feb-22 04:58N 54°18' W 130°21'0 0.0
2018-Feb-22 04:25N 54°18' W 130°21'0 0.0
2018-Feb-22 03:22N 54°18' W 130°21'1 2.6
2018-Feb-22 03:00N 54°18' W 130°21'0 0.0
2018-Feb-22 02:21N 54°18' W 130°21'3 8.0
2018-Feb-22 02:00N 54°16' W 130°21'2 3.7
2018-Feb-22 01:30N 54°14' W 130°20'0 0.1
2018-Feb-22 01:00N 54°14' W 130°20'1 1.7
2018-Feb-22 00:28N 54°13' W 130°21'1 1.8
2018-Feb-22 00:00N 54°14' W 130°20'3 6.1
2018-Feb-21 23:30N 54°17' W 130°22'1 0.9
2018-Feb-21 22:29N 54°18' W 130°21'0 0.0
2018-Feb-21 21:59N 54°18' W 130°21'0 0.0
2018-Feb-21 21:29N 54°18' W 130°21'0 0.0
2018-Feb-21 20:53N 54°18' W 130°21'0 0.0
2018-Feb-21 20:29N 54°18' W 130°21'0 0.0
2018-Feb-21 19:53N 54°18' W 130°21'0 0.0
2018-Feb-21 19:29N 54°18' W 130°21'0 0.0
2018-Feb-21 18:59N 54°18' W 130°21'0 0.0
2018-Feb-21 18:29N 54°18' W 130°21'0 0.0
2018-Feb-21 17:59N 54°18' W 130°21'0 0.0
2018-Feb-21 17:26N 54°18' W 130°21'0 0.0
2018-Feb-21 16:56N 54°18' W 130°21'0 0.0
2018-Feb-21 16:29N 54°18' W 130°21'0 0.0
2018-Feb-21 15:59N 54°18' W 130°21'0 0.0
2018-Feb-21 15:29N 54°18' W 130°21'0 0.0
2018-Feb-21 14:59N 54°18' W 130°21'0 0.0
2018-Feb-21 14:29N 54°18' W 130°21'0 0.0
2018-Feb-21 13:41N 54°18' W 130°21'0 0.0
2018-Feb-21 13:29N 54°18' W 130°21'0 0.0
2018-Feb-21 12:59N 54°18' W 130°21'0 0.0
2018-Feb-21 12:29N 54°18' W 130°21'0 0.0
2018-Feb-21 11:53N 54°18' W 130°21'0 0.0
2018-Feb-21 11:17N 54°18' W 130°21'0 0.0
2018-Feb-21 10:59N 54°18' W 130°21'0 0.0
2018-Feb-21 10:29N 54°18' W 130°21'0 0.0
2018-Feb-21 09:59N 54°18' W 130°21'0 0.0
2018-Feb-21 09:29N 54°18' W 130°21'0 0.0
2018-Feb-21 08:59N 54°18' W 130°21'0 0.0
2018-Feb-21 08:29N 54°18' W 130°21'0 0.0
2018-Feb-21 07:59N 54°18' W 130°21'0 1.0
2018-Feb-21 07:30N 54°17' W 130°22'0 0.2
2018-Feb-21 07:00N 54°17' W 130°22'1 1.0
2018-Feb-21 06:30N 54°18' W 130°22'1 1.5
2018-Feb-21 06:00N 54°17' W 130°22'1 1.2
2018-Feb-21 05:30N 54°18' W 130°21'0 0.0
2018-Feb-21 04:57N 54°18' W 130°21'0 0.0
2018-Feb-21 04:27N 54°18' W 130°21'0 0.0
2018-Feb-21 04:00N 54°18' W 130°21'0 0.0
2018-Feb-21 03:30N 54°18' W 130°21'0 0.0
2018-Feb-21 03:00N 54°18' W 130°21'0 0.0
2018-Feb-21 02:30N 54°18' W 130°21'0 0.0
2018-Feb-21 02:00N 54°18' W 130°21'0 0.0
2018-Feb-21 01:30N 54°18' W 130°21'0 0.1
2018-Feb-21 01:00N 54°18' W 130°21'0 0.1
2018-Feb-21 00:30N 54°18' W 130°21'0 0.0
2018-Feb-21 00:00N 54°18' W 130°21'0 0.0
2018-Feb-20 23:30N 54°18' W 130°21'0 0.0
2018-Feb-20 23:00N 54°18' W 130°21'0 0.0
2018-Feb-20 22:30N 54°18' W 130°21'0 0.0
2018-Feb-20 22:00N 54°18' W 130°21'0 0.0
2018-Feb-20 21:30N 54°18' W 130°21'0 0.0
2018-Feb-20 21:00N 54°18' W 130°21'0 0.0
2018-Feb-20 20:30N 54°18' W 130°21'0 0.0
2018-Feb-20 20:00N 54°18' W 130°21'0 0.0
2018-Feb-20 19:30N 54°18' W 130°21'0 0.0
2018-Feb-20 19:00N 54°18' W 130°21'0 0.0
2018-Feb-20 18:30N 54°18' W 130°21'0 0.0
2018-Feb-20 18:00N 54°18' W 130°21'0 0.0
2018-Feb-20 17:30N 54°18' W 130°21'0 0.0
2018-Feb-20 17:00N 54°18' W 130°21'0 0.0
2018-Feb-20 16:30N 54°18' W 130°21'0 0.0
2018-Feb-20 16:00N 54°18' W 130°21'0 0.0
2018-Feb-20 15:30N 54°18' W 130°21'0 0.0
2018-Feb-20 15:00N 54°18' W 130°21'0 0.0
2018-Feb-20 14:30N 54°18' W 130°21'0 0.0
2018-Feb-20 14:00N 54°18' W 130°21'0 0.0
2018-Feb-20 13:30N 54°18' W 130°21'0 0.0
2018-Feb-20 12:48N 54°18' W 130°21'0 0.0
2018-Feb-20 12:30N 54°18' W 130°21'0 0.0
2018-Feb-20 11:48N 54°18' W 130°21'0 0.0
2018-Feb-20 11:30N 54°18' W 130°21'0 0.0
2018-Feb-20 11:00N 54°18' W 130°21'0 0.0
2018-Feb-20 10:30N 54°18' W 130°21'0 0.0
2018-Feb-20 10:00N 54°18' W 130°21'0 0.0
2018-Feb-20 09:30N 54°18' W 130°21'0 0.0
2018-Feb-20 09:00N 54°18' W 130°21'0 0.0
2018-Feb-20 08:30N 54°18' W 130°21'0 0.0
2018-Feb-20 08:00N 54°18' W 130°21'0 0.0
2018-Feb-20 07:30N 54°18' W 130°21'0 0.0
2018-Feb-20 07:00N 54°18' W 130°21'0 0.0
2018-Feb-20 06:30N 54°18' W 130°21'0 0.0
2018-Feb-20 06:00N 54°18' W 130°21'0 0.0
2018-Feb-20 05:30N 54°18' W 130°21'4 7.1
2018-Feb-20 04:59N 54°14' W 130°20'0 0.0
2018-Feb-20 04:29N 54°14' W 130°20'2 3.3
2018-Feb-20 04:00N 54°15' W 130°21'0 0.2
2018-Feb-20 03:30N 54°15' W 130°21'1 2.7
2018-Feb-20 03:00N 54°14' W 130°21'0 0.5
2018-Feb-20 02:27N 54°14' W 130°20'0 0.0
2018-Feb-20 02:00N 54°14' W 130°20'4 7.2
2018-Feb-20 01:30N 54°17' W 130°22'0 0.4
2018-Feb-20 01:00N 54°18' W 130°21'0 0.0
2018-Feb-20 00:24N 54°18' W 130°21'0 0.0
2018-Feb-20 00:00N 54°18' W 130°21'0 0.0
2018-Feb-19 23:30N 54°18' W 130°21'0 0.0
2018-Feb-19 23:00N 54°18' W 130°21'0 0.0
2018-Feb-19 22:30N 54°18' W 130°21'0 0.0
2018-Feb-19 22:00N 54°18' W 130°21'0 0.0
2018-Feb-19 21:24N 54°18' W 130°21'0 0.0
2018-Feb-19 21:00N 54°18' W 130°21'0 0.0
2018-Feb-19 20:30N 54°18' W 130°21'0 0.0
2018-Feb-19 20:00N 54°18' W 130°21'0 0.0
2018-Feb-19 19:30N 54°18' W 130°21'0 0.0
2018-Feb-19 19:00N 54°18' W 130°21'0 0.0
2018-Feb-19 18:30N 54°18' W 130°21'0 0.0
2018-Feb-19 18:00N 54°18' W 130°21'0 0.0
2018-Feb-19 17:30N 54°18' W 130°21'0 0.0
2018-Feb-19 17:00N 54°18' W 130°21'0 0.0
2018-Feb-19 16:27N 54°18' W 130°21'0 0.0
2018-Feb-19 15:57N 54°18' W 130°21'0 0.0
2018-Feb-19 15:27N 54°18' W 130°21'0 0.0
2018-Feb-19 14:57N 54°18' W 130°21'0 0.0
2018-Feb-19 14:12N 54°18' W 130°21'0 0.0
2018-Feb-19 14:00N 54°18' W 130°21'0 0.0
2018-Feb-19 13:30N 54°18' W 130°21'0 0.0
2018-Feb-19 12:57N 54°18' W 130°21'0 0.0
2018-Feb-19 12:27N 54°18' W 130°21'0 0.0
2018-Feb-19 11:54N 54°18' W 130°21'0 0.0
2018-Feb-19 11:30N 54°18' W 130°21'0 0.0
2018-Feb-19 11:00N 54°18' W 130°21'0 0.0
2018-Feb-19 10:30N 54°18' W 130°21'0 0.0
2018-Feb-19 10:00N 54°18' W 130°21'0 0.0
2018-Feb-19 09:30N 54°18' W 130°21'0 0.0
2018-Feb-19 09:00N 54°18' W 130°21'0 0.0
2018-Feb-19 08:24N 54°18' W 130°21'0 0.0
2018-Feb-19 08:00N 54°18' W 130°21'0 0.0
2018-Feb-19 07:30N 54°18' W 130°21'0 0.0
2018-Feb-19 07:00N 54°18' W 130°21'0 0.0
2018-Feb-19 06:30N 54°18' W 130°21'0 0.0
2018-Feb-19 06:00N 54°18' W 130°21'0 0.0
2018-Feb-19 05:30N 54°18' W 130°21'0 0.0
2018-Feb-19 04:54N 54°18' W 130°21'0 0.0
2018-Feb-19 04:21N 54°18' W 130°21'0 0.0
2018-Feb-19 03:48N 54°18' W 130°21'0 0.0
2018-Feb-19 03:30N 54°18' W 130°21'0 0.0
2018-Feb-19 03:00N 54°18' W 130°21'0 0.0
2018-Feb-19 02:27N 54°18' W 130°21'0 0.0
2018-Feb-19 01:57N 54°18' W 130°21'0 0.0
2018-Feb-18 21:30N 54°18' W 130°21'0 0.0
2018-Feb-18 20:48N 54°18' W 130°21'0 0.0
2018-Feb-18 20:18N 54°18' W 130°21'0 0.0
2018-Feb-18 20:00N 54°18' W 130°21'0 0.0
2018-Feb-18 19:30N 54°18' W 130°21'0 0.0
2018-Feb-18 19:00N 54°18' W 130°21'0 0.0
2018-Feb-18 18:30N 54°18' W 130°21'0 0.0
2018-Feb-18 18:00N 54°18' W 130°21'0 0.0
2018-Feb-18 17:30N 54°18' W 130°21'0 0.0
2018-Feb-18 17:00N 54°18' W 130°21'0 0.0
2018-Feb-18 16:15N 54°18' W 130°21'0 0.0
2018-Feb-18 16:00N 54°18' W 130°21'0 0.0
2018-Feb-18 15:18N 54°18' W 130°21'1 3.6
2018-Feb-18 15:00N 54°17' W 130°22'3 5.1
2018-Feb-18 14:28N 54°14' W 130°20'0 0.0
2018-Feb-18 13:58N 54°14' W 130°20'0 0.8
2018-Feb-18 13:30N 54°14' W 130°21'0 0.8
2018-Feb-18 12:58N 54°14' W 130°20'2 4.6
2018-Feb-18 12:30N 54°13' W 130°24'4 8.4
2018-Feb-18 12:00N 54°12' W 130°31'612.3
2018-Feb-18 11:30N 54°15' W 130°21'3 5.2
2018-Feb-18 11:00N 54°18' W 130°21'0 0.6
2018-Feb-18 10:30N 54°17' W 130°22'0 1.0
2018-Feb-18 10:00N 54°18' W 130°22'0 0.8
2018-Feb-18 09:23N 54°18' W 130°22'0 0.0
2018-Feb-18 08:47N 54°18' W 130°22'0 0.4
2018-Feb-18 08:29N 54°18' W 130°22'0 0.2
2018-Feb-18 07:59N 54°18' W 130°22'1 1.0
2018-Feb-18 07:28N 54°18' W 130°22'3 6.1
2018-Feb-18 07:00N 54°15' W 130°21'3 6.2
2018-Feb-18 06:30N 54°12' W 130°21'2 4.2
2018-Feb-18 06:00N 54°14' W 130°21'3 6.8
2018-Feb-18 05:30N 54°18' W 130°21'0 0.0
2018-Feb-18 05:00N 54°18' W 130°21'0 0.0
2018-Feb-18 04:27N 54°18' W 130°21'0 0.0
2018-Feb-18 04:00N 54°18' W 130°21'0 0.0
2018-Feb-18 03:30N 54°18' W 130°21'0 0.0
2018-Feb-18 03:00N 54°18' W 130°21'0 0.0
2018-Feb-18 02:30N 54°18' W 130°21'0 0.0
2018-Feb-18 02:00N 54°18' W 130°21'0 0.0
2018-Feb-18 01:30N 54°18' W 130°21'0 0.0
2018-Feb-18 01:00N 54°18' W 130°21'0 0.0
2018-Feb-18 00:30N 54°18' W 130°21'0 0.0
2018-Feb-17 23:57N 54°18' W 130°21'0 0.0
2018-Feb-17 23:24N 54°18' W 130°21'0 0.0
2018-Feb-17 23:00N 54°18' W 130°21'0 0.0
2018-Feb-17 22:27N 54°18' W 130°21'0 0.0
2018-Feb-17 22:00N 54°18' W 130°21'0 0.0
2018-Feb-17 19:33N 54°18' W 130°21'0 0.0
2018-Feb-17 19:21N 54°18' W 130°21'0 0.0
2018-Feb-17 18:57N 54°18' W 130°21'0 0.0
2018-Feb-17 18:30N 54°18' W 130°21'0 0.0
2018-Feb-17 17:48N 54°18' W 130°21'0 0.0
2018-Feb-17 17:30N 54°18' W 130°21'0 0.0
2018-Feb-17 16:57N 54°18' W 130°21'0 0.0
2018-Feb-17 16:27N 54°18' W 130°21'0 0.0
2018-Feb-17 16:00N 54°18' W 130°21'0 0.0
2018-Feb-17 15:21N 54°18' W 130°21'0 0.0
2018-Feb-17 14:57N 54°18' W 130°21'0 0.0
2018-Feb-17 14:30N 54°18' W 130°21'0 0.0
2018-Feb-17 13:57N 54°18' W 130°21'0 0.0
2018-Feb-17 13:30N 54°18' W 130°21'0 0.0
2018-Feb-17 13:00N 54°18' W 130°21'0 0.0
2018-Feb-17 12:30N 54°18' W 130°21'0 0.0
2018-Feb-17 11:03N 54°18' W 130°21'0 0.0
2018-Feb-17 11:00N 54°18' W 130°21'0 0.0
2018-Feb-17 10:30N 54°18' W 130°21'0 0.0
2018-Feb-17 09:48N 54°18' W 130°21'0 0.0
2018-Feb-17 09:30N 54°18' W 130°21'0 0.0
2018-Feb-17 08:54N 54°18' W 130°21'0 0.0
2018-Feb-17 08:27N 54°18' W 130°21'0 0.0
2018-Feb-17 07:57N 54°18' W 130°21'0 0.0
2018-Feb-17 07:30N 54°18' W 130°21'0 0.0
2018-Feb-17 06:09N 54°18' W 130°21'0 0.0
2018-Feb-17 06:00N 54°18' W 130°21'0 0.0
2018-Feb-17 05:21N 54°18' W 130°21'0 0.0
2018-Feb-17 05:00N 54°18' W 130°21'0 0.0
2018-Feb-17 04:30N 54°18' W 130°21'0 0.0
2018-Feb-17 04:00N 54°18' W 130°21'0 0.0
2018-Feb-17 03:30N 54°18' W 130°21'0 0.0
2018-Feb-17 03:00N 54°18' W 130°21'0 0.0
2018-Feb-17 02:27N 54°18' W 130°21'0 0.0
2018-Feb-17 01:57N 54°18' W 130°21'0 0.0
2018-Feb-17 01:30N 54°18' W 130°21'0 0.0
2018-Feb-17 00:51N 54°18' W 130°21'0 0.0
2018-Feb-17 00:30N 54°18' W 130°21'0 0.0
2018-Feb-17 00:00N 54°18' W 130°21'0 0.0
2018-Feb-16 23:30N 54°18' W 130°21'0 0.0
2018-Feb-16 23:00N 54°18' W 130°21'0 0.0
2018-Feb-16 22:27N 54°18' W 130°21'0 0.0
2018-Feb-16 21:57N 54°18' W 130°21'0 0.0
2018-Feb-16 21:27N 54°18' W 130°21'0 0.0
2018-Feb-16 20:51N 54°18' W 130°21'0 0.0
2018-Feb-16 20:21N 54°18' W 130°21'0 0.0
2018-Feb-16 19:57N 54°18' W 130°21'0 0.0
2018-Feb-16 19:27N 54°18' W 130°21'0 0.0
2018-Feb-16 18:57N 54°18' W 130°21'0 0.0
2018-Feb-16 18:27N 54°18' W 130°21'0 0.0
2018-Feb-16 17:57N 54°18' W 130°21'0 0.0
2018-Feb-16 17:30N 54°18' W 130°21'0 0.0
2018-Feb-16 16:57N 54°18' W 130°21'0 0.0
2018-Feb-16 16:21N 54°18' W 130°21'0 0.0
2018-Feb-16 15:57N 54°18' W 130°21'0 0.1
2018-Feb-16 15:30N 54°18' W 130°21'4 7.8
2018-Feb-16 14:59N 54°14' W 130°20'0 0.0
2018-Feb-16 14:29N 54°14' W 130°20'0 0.2
2018-Feb-16 13:59N 54°14' W 130°20'1 1.1
2018-Feb-16 13:29N 54°13' W 130°21'1 1.2
2018-Feb-16 13:01N 54°13' W 130°21'5 9.4
2018-Feb-16 12:30N 54°11' W 130°29'5 9.7
2018-Feb-16 12:00N 54°07' W 130°35'4 7.3
2018-Feb-16 11:30N 54°10' W 130°31'612.6
2018-Feb-16 11:00N 54°13' W 130°21'4 7.6
2018-Feb-16 10:25N 54°18' W 130°21'0 0.0
2018-Feb-16 09:58N 54°18' W 130°21'0 0.0
2018-Feb-16 09:25N 54°18' W 130°21'0 0.0
2018-Feb-16 08:55N 54°18' W 130°21'0 0.0
2018-Feb-16 08:28N 54°18' W 130°21'0 0.0
2018-Feb-16 07:52N 54°18' W 130°21'0 0.0
2018-Feb-16 07:28N 54°18' W 130°21'0 0.0
2018-Feb-16 06:58N 54°18' W 130°21'0 0.0
2018-Feb-16 06:01N 54°18' W 130°21'0 0.0
2018-Feb-16 05:49N 54°18' W 130°21'0 0.0
2018-Feb-16 05:28N 54°18' W 130°21'0 0.0
2018-Feb-16 04:52N 54°18' W 130°21'0 0.0
2018-Feb-16 04:28N 54°18' W 130°21'0 0.0
2018-Feb-16 03:58N 54°18' W 130°21'0 0.0
2018-Feb-16 03:25N 54°18' W 130°21'0 0.0
2018-Feb-16 02:58N 54°18' W 130°21'0 0.0
2018-Feb-16 01:37N 54°18' W 130°21'0 0.0
2018-Feb-16 01:07N 54°18' W 130°21'  
Track history (hours):
 
Tides and Currents Weather Stations Pressure Air Temp Water Temp Dewpoint Dewpoint Depression Visibility Wind Speed Wind Dir Waves Ship Positions

Smit Humber

Last reported at 2018-Feb-26 01:02 UTC. Time now 2018-Feb-26 02:01 UTC.
Position N 54°18' W 130°21'.

Length 31 m; draft 5.1 m.

Type: Tug. MMSI: 316020345.

Date/timePositionNaut miles runAvg speedWind from/ knotsBaromVisibWave heightAir tempDewpointWater temp
2018-Feb-26 01:02N 54°18' W 130°21'0 0.0
2018-Feb-26 00:56N 54°18' W 130°21'0 0.0
2018-Feb-26 00:26N 54°18' W 130°21'0 0.0
2018-Feb-25 23:50N 54°18' W 130°21'0 0.0
2018-Feb-25 23:26N 54°18' W 130°21'0 0.0
2018-Feb-25 22:50N 54°18' W 130°21'0 0.0
2018-Feb-25 19:36N 54°18' W 130°21'0 1.5
2018-Feb-25 19:30N 54°18' W 130°22'4 8.0
2018-Feb-25 19:00N 54°14' W 130°20'3 6.7
2018-Feb-25 18:30N 54°17' W 130°22'1 0.2
2018-Feb-25 13:45N 54°18' W 130°21'0 0.0
2018-Feb-25 13:27N 54°18' W 130°21'0 0.0
2018-Feb-25 12:51N 54°18' W 130°21'0 0.0
2018-Feb-25 12:27N 54°18' W 130°21'0 0.0
2018-Feb-25 11:51N 54°18' W 130°21'0 0.0
2018-Feb-25 11:09N 54°18' W 130°21'0 0.0
2018-Feb-25 10:57N 54°18' W 130°21'0 0.0
2018-Feb-25 10:27N 54°18' W 130°21'0 0.0
2018-Feb-25 09:57N 54°18' W 130°21'0 0.0
2018-Feb-25 09:27N 54°18' W 130°21'0 0.0
2018-Feb-25 08:57N 54°18' W 130°21'0 0.0
2018-Feb-25 08:27N 54°18' W 130°21'0 0.0
2018-Feb-25 07:51N 54°18' W 130°21'0 0.0
2018-Feb-25 07:27N 54°18' W 130°21'0 0.0
2018-Feb-25 06:45N 54°18' W 130°21'0 0.0
2018-Feb-25 06:27N 54°18' W 130°21'0 0.0
2018-Feb-25 05:57N 54°18' W 130°21'0 0.0
2018-Feb-25 05:21N 54°18' W 130°21'0 0.0
2018-Feb-25 04:57N 54°18' W 130°21'0 0.0
2018-Feb-25 04:27N 54°18' W 130°21'0 0.0
2018-Feb-25 03:57N 54°18' W 130°21'0 0.0
2018-Feb-25 03:27N 54°18' W 130°21'0 0.0
2018-Feb-25 02:57N 54°18' W 130°21'0 0.0
2018-Feb-25 02:27N 54°18' W 130°21'0 0.0
2018-Feb-25 02:00N 54°18' W 130°21'0 0.0
2018-Feb-25 01:30N 54°18' W 130°21'0 0.0
2018-Feb-25 00:57N 54°18' W 130°21'0 0.0
2018-Feb-25 00:27N 54°18' W 130°21'0 0.0
2018-Feb-25 00:00N 54°18' W 130°21'0 0.0
2018-Feb-24 23:30N 54°18' W 130°21'0 0.0
2018-Feb-24 22:57N 54°18' W 130°21'0 0.0
2018-Feb-24 22:30N 54°18' W 130°21'0 0.0
2018-Feb-24 22:00N 54°18' W 130°21'0 0.0
2018-Feb-24 21:30N 54°18' W 130°21'0 0.0
2018-Feb-24 20:51N 54°18' W 130°21'0 0.0
2018-Feb-24 20:27N 54°18' W 130°21'0 0.0
2018-Feb-24 19:57N 54°18' W 130°21'0 0.0
2018-Feb-24 19:27N 54°18' W 130°21'0 0.0
2018-Feb-24 18:51N 54°18' W 130°21'0 0.0
2018-Feb-24 18:27N 54°18' W 130°21'0 0.0
2018-Feb-24 17:57N 54°18' W 130°21'3 5.8
2018-Feb-24 17:30N 54°15' W 130°21'1 2.5
2018-Feb-24 16:57N 54°14' W 130°20'0 0.0
2018-Feb-24 16:30N 54°14' W 130°20'0 0.1
2018-Feb-24 16:00N 54°14' W 130°20'1 1.4
2018-Feb-24 15:30N 54°13' W 130°21'0 0.3
2018-Feb-24 15:00N 54°13' W 130°21'4 6.6
2018-Feb-24 14:22N 54°18' W 130°21'0 0.0
2018-Feb-24 13:55N 54°18' W 130°21'0 0.0
2018-Feb-24 13:10N 54°18' W 130°21'0 0.0
2018-Feb-24 12:58N 54°18' W 130°21'0 0.0
2018-Feb-24 12:28N 54°18' W 130°21'0 0.0
2018-Feb-24 11:52N 54°18' W 130°21'0 0.0
2018-Feb-24 11:28N 54°18' W 130°21'0 0.0
2018-Feb-24 10:10N 54°18' W 130°21'0 0.0
2018-Feb-24 07:40N 54°18' W 130°21'0 0.0
2018-Feb-24 07:16N 54°18' W 130°21'0 0.0
2018-Feb-24 06:52N 54°18' W 130°21'0 0.0
2018-Feb-24 06:16N 54°18' W 130°21'0 0.3
2018-Feb-24 05:55N 54°18' W 130°21'4 8.6
2018-Feb-24 05:29N 54°14' W 130°20'0 0.0
2018-Feb-24 04:59N 54°14' W 130°20'0 1.0
2018-Feb-24 04:30N 54°14' W 130°21'0 0.8
2018-Feb-24 03:59N 54°14' W 130°20'0 0.1
2018-Feb-24 03:28N 54°14' W 130°20'3 6.6
2018-Feb-24 03:01N 54°13' W 130°25'2 4.8
2018-Feb-24 02:30N 54°13' W 130°29'510.8
2018-Feb-24 02:00N 54°16' W 130°21'2 2.3
2018-Feb-24 01:08N 54°18' W 130°21'0 0.0
2018-Feb-24 00:50N 54°18' W 130°21'0 0.0
2018-Feb-24 00:26N 54°18' W 130°21'0 0.0
2018-Feb-23 23:56N 54°18' W 130°21'0 0.0
2018-Feb-23 23:26N 54°18' W 130°21'0 0.0
2018-Feb-23 22:56N 54°18' W 130°21'0 0.0
2018-Feb-23 22:26N 54°18' W 130°21'0 0.0
2018-Feb-23 21:56N 54°18' W 130°21'0 0.0
2018-Feb-23 21:29N 54°18' W 130°21'0 0.0
2018-Feb-23 20:56N 54°18' W 130°21'0 0.0
2018-Feb-23 20:29N 54°18' W 130°21'0 0.0
2018-Feb-23 19:59N 54°18' W 130°21'0 0.0
2018-Feb-23 19:26N 54°18' W 130°21'0 1.1
2018-Feb-23 19:00N 54°17' W 130°22'0 0.0
2018-Feb-23 18:30N 54°17' W 130°22'1 1.2
2018-Feb-23 17:59N 54°18' W 130°22'0 0.6
2018-Feb-23 17:29N 54°18' W 130°22'0 0.2
2018-Feb-23 16:59N 54°18' W 130°22'0 0.4
2018-Feb-23 16:29N 54°18' W 130°22'1 1.7
2018-Feb-23 16:00N 54°18' W 130°22'5 9.3
2018-Feb-23 15:30N 54°13' W 130°21'1 1.5
2018-Feb-23 15:00N 54°14' W 130°21'4 6.7
2018-Feb-23 14:25N 54°18' W 130°21'0 0.1
2018-Feb-23 13:55N 54°18' W 130°21'0 0.0
2018-Feb-23 13:22N 54°18' W 130°21'0 0.0
2018-Feb-23 12:55N 54°18' W 130°21'0 0.1
2018-Feb-23 12:28N 54°18' W 130°21'0 0.0
2018-Feb-23 11:58N 54°18' W 130°21'0 0.1
2018-Feb-23 11:28N 54°18' W 130°21'0 0.1
2018-Feb-23 10:55N 54°18' W 130°21'0 0.0
2018-Feb-23 10:28N 54°18' W 130°21'0 0.0
2018-Feb-23 09:55N 54°18' W 130°21'0 0.0
2018-Feb-23 09:28N 54°18' W 130°21'0 0.0
2018-Feb-23 08:52N 54°18' W 130°21'0 0.0
2018-Feb-23 08:28N 54°18' W 130°21'0 0.0
2018-Feb-23 07:58N 54°18' W 130°21'0 0.0
2018-Feb-23 07:28N 54°18' W 130°21'0 0.0
2018-Feb-23 06:58N 54°18' W 130°21'0 0.0
2018-Feb-23 06:28N 54°18' W 130°21'0 0.0
2018-Feb-23 05:55N 54°18' W 130°21'0 0.0
2018-Feb-23 05:28N 54°18' W 130°21'0 0.0
2018-Feb-23 04:58N 54°18' W 130°21'0 0.0
2018-Feb-23 04:25N 54°18' W 130°21'0 0.0
2018-Feb-23 03:58N 54°18' W 130°21'0 0.0
2018-Feb-23 03:25N 54°18' W 130°21'0 0.0
2018-Feb-23 02:58N 54°18' W 130°21'0 0.0
2018-Feb-23 02:28N 54°18' W 130°21'0 0.0
2018-Feb-23 01:58N 54°18' W 130°21'0 0.0
2018-Feb-23 01:19N 54°18' W 130°21'0 0.0
2018-Feb-23 00:58N 54°18' W 130°21'0 0.0
2018-Feb-23 00:28N 54°18' W 130°21'0 0.0
2018-Feb-22 23:58N 54°18' W 130°21'0 0.0
2018-Feb-22 23:28N 54°18' W 130°21'0 0.0
2018-Feb-22 22:52N 54°18' W 130°21'0 0.0
2018-Feb-22 22:28N 54°18' W 130°21'0 0.0
2018-Feb-22 21:19N 54°18' W 130°21'0 0.0
2018-Feb-22 20:58N 54°18' W 130°21'0 0.1
2018-Feb-22 20:22N 54°18' W 130°21'0 0.1
2018-Feb-22 19:46N 54°18' W 130°21'0 0.0
2018-Feb-22 19:28N 54°18' W 130°21'0 0.0
2018-Feb-22 18:52N 54°18' W 130°21'0 0.0
2018-Feb-22 18:28N 54°18' W 130°21'0 0.0
2018-Feb-22 17:58N 54°18' W 130°21'0 0.0
2018-Feb-22 17:28N 54°18' W 130°21'2 5.2
2018-Feb-22 17:00N 54°15' W 130°21'1 2.7
2018-Feb-22 16:30N 54°14' W 130°20'0 0.7
2018-Feb-22 16:00N 54°14' W 130°21'0 0.6
2018-Feb-22 15:28N 54°14' W 130°20'0 0.0
2018-Feb-22 14:59N 54°14' W 130°20'0 0.8
2018-Feb-22 14:29N 54°14' W 130°21'0 0.1
2018-Feb-22 13:59N 54°14' W 130°21'2 5.1
2018-Feb-22 13:30N 54°16' W 130°22'1 1.9
2018-Feb-22 12:55N 54°18' W 130°21'0 0.0
2018-Feb-22 12:28N 54°18' W 130°21'0 0.0
2018-Feb-22 11:58N 54°18' W 130°21'0 0.0
2018-Feb-22 11:28N 54°18' W 130°21'0 0.0
2018-Feb-22 10:58N 54°18' W 130°21'0 0.0
2018-Feb-22 10:28N 54°18' W 130°21'0 0.0
2018-Feb-22 09:58N 54°18' W 130°21'0 0.0
2018-Feb-22 09:28N 54°18' W 130°21'0 0.0
2018-Feb-22 08:58N 54°18' W 130°21'0 0.0
2018-Feb-22 08:28N 54°18' W 130°21'0 0.0
2018-Feb-22 07:55N 54°18' W 130°21'0 0.0
2018-Feb-22 07:28N 54°18' W 130°21'0 0.0
2018-Feb-22 06:58N 54°18' W 130°21'0 0.0
2018-Feb-22 06:28N 54°18' W 130°21'0 0.0
2018-Feb-22 05:58N 54°18' W 130°21'0 0.0
2018-Feb-22 05:28N 54°18' W 130°21'0 0.0
2018-Feb-22 04:58N 54°18' W 130°21'0 0.0
2018-Feb-22 04:25N 54°18' W 130°21'0 0.0
2018-Feb-22 03:22N 54°18' W 130°21'1 2.6
2018-Feb-22 03:00N 54°18' W 130°21'0 0.0
2018-Feb-22 02:21N 54°18' W 130°21'3 8.0
2018-Feb-22 02:00N 54°16' W 130°21'2 3.7
2018-Feb-22 01:30N 54°14' W 130°20'0 0.1
2018-Feb-22 01:00N 54°14' W 130°20'1 1.7
2018-Feb-22 00:28N 54°13' W 130°21'1 1.8
2018-Feb-22 00:00N 54°14' W 130°20'3 6.1
2018-Feb-21 23:30N 54°17' W 130°22'1 0.9
2018-Feb-21 22:29N 54°18' W 130°21'0 0.0
2018-Feb-21 21:59N 54°18' W 130°21'0 0.0
2018-Feb-21 21:29N 54°18' W 130°21'0 0.0
2018-Feb-21 20:53N 54°18' W 130°21'0 0.0
2018-Feb-21 20:29N 54°18' W 130°21'0 0.0
2018-Feb-21 19:53N 54°18' W 130°21'0 0.0
2018-Feb-21 19:29N 54°18' W 130°21'0 0.0
2018-Feb-21 18:59N 54°18' W 130°21'0 0.0
2018-Feb-21 18:29N 54°18' W 130°21'0 0.0
2018-Feb-21 17:59N 54°18' W 130°21'0 0.0
2018-Feb-21 17:26N 54°18' W 130°21'0 0.0
2018-Feb-21 16:56N 54°18' W 130°21'0 0.0
2018-Feb-21 16:29N 54°18' W 130°21'0 0.0
2018-Feb-21 15:59N 54°18' W 130°21'0 0.0
2018-Feb-21 15:29N 54°18' W 130°21'0 0.0
2018-Feb-21 14:59N 54°18' W 130°21'0 0.0
2018-Feb-21 14:29N 54°18' W 130°21'0 0.0
2018-Feb-21 13:41N 54°18' W 130°21'0 0.0
2018-Feb-21 13:29N 54°18' W 130°21'0 0.0
2018-Feb-21 12:59N 54°18' W 130°21'0 0.0
2018-Feb-21 12:29N 54°18' W 130°21'0 0.0
2018-Feb-21 11:53N 54°18' W 130°21'0 0.0
2018-Feb-21 11:17N 54°18' W 130°21'0 0.0
2018-Feb-21 10:59N 54°18' W 130°21'0 0.0
2018-Feb-21 10:29N 54°18' W 130°21'0 0.0
2018-Feb-21 09:59N 54°18' W 130°21'0 0.0
2018-Feb-21 09:29N 54°18' W 130°21'0 0.0
2018-Feb-21 08:59N 54°18' W 130°21'0 0.0
2018-Feb-21 08:29N 54°18' W 130°21'0 0.0
2018-Feb-21 07:59N 54°18' W 130°21'0 1.0
2018-Feb-21 07:30N 54°17' W 130°22'0 0.2
2018-Feb-21 07:00N 54°17' W 130°22'1 1.0
2018-Feb-21 06:30N 54°18' W 130°22'1 1.5
2018-Feb-21 06:00N 54°17' W 130°22'1 1.2
2018-Feb-21 05:30N 54°18' W 130°21'0 0.0
2018-Feb-21 04:57N 54°18' W 130°21'0 0.0
2018-Feb-21 04:27N 54°18' W 130°21'0 0.0
2018-Feb-21 04:00N 54°18' W 130°21'0 0.0
2018-Feb-21 03:30N 54°18' W 130°21'0 0.0
2018-Feb-21 03:00N 54°18' W 130°21'0 0.0
2018-Feb-21 02:30N 54°18' W 130°21'0 0.0
2018-Feb-21 02:00N 54°18' W 130°21'0 0.0
2018-Feb-21 01:30N 54°18' W 130°21'0 0.1
2018-Feb-21 01:00N 54°18' W 130°21'0 0.1
2018-Feb-21 00:30N 54°18' W 130°21'0 0.0
2018-Feb-21 00:00N 54°18' W 130°21'0 0.0
2018-Feb-20 23:30N 54°18' W 130°21'0 0.0
2018-Feb-20 23:00N 54°18' W 130°21'0 0.0
2018-Feb-20 22:30N 54°18' W 130°21'0 0.0
2018-Feb-20 22:00N 54°18' W 130°21'0 0.0
2018-Feb-20 21:30N 54°18' W 130°21'0 0.0
2018-Feb-20 21:00N 54°18' W 130°21'0 0.0
2018-Feb-20 20:30N 54°18' W 130°21'0 0.0
2018-Feb-20 20:00N 54°18' W 130°21'0 0.0
2018-Feb-20 19:30N 54°18' W 130°21'0 0.0
2018-Feb-20 19:00N 54°18' W 130°21'0 0.0
2018-Feb-20 18:30N 54°18' W 130°21'0 0.0
2018-Feb-20 18:00N 54°18' W 130°21'0 0.0
2018-Feb-20 17:30N 54°18' W 130°21'0 0.0
2018-Feb-20 17:00N 54°18' W 130°21'0 0.0
2018-Feb-20 16:30N 54°18' W 130°21'0 0.0
2018-Feb-20 16:00N 54°18' W 130°21'0 0.0
2018-Feb-20 15:30N 54°18' W 130°21'0 0.0
2018-Feb-20 15:00N 54°18' W 130°21'0 0.0
2018-Feb-20 14:30N 54°18' W 130°21'0 0.0
2018-Feb-20 14:00N 54°18' W 130°21'0 0.0
2018-Feb-20 13:30N 54°18' W 130°21'0 0.0
2018-Feb-20 12:48N 54°18' W 130°21'0 0.0
2018-Feb-20 12:30N 54°18' W 130°21'0 0.0
2018-Feb-20 11:48N 54°18' W 130°21'0 0.0
2018-Feb-20 11:30N 54°18' W 130°21'0 0.0
2018-Feb-20 11:00N 54°18' W 130°21'0 0.0
2018-Feb-20 10:30N 54°18' W 130°21'0 0.0
2018-Feb-20 10:00N 54°18' W 130°21'0 0.0
2018-Feb-20 09:30N 54°18' W 130°21'0 0.0
2018-Feb-20 09:00N 54°18' W 130°21'0 0.0
2018-Feb-20 08:30N 54°18' W 130°21'0 0.0
2018-Feb-20 08:00N 54°18' W 130°21'0 0.0
2018-Feb-20 07:30N 54°18' W 130°21'0 0.0
2018-Feb-20 07:00N 54°18' W 130°21'0 0.0
2018-Feb-20 06:30N 54°18' W 130°21'0 0.0
2018-Feb-20 06:00N 54°18' W 130°21'0 0.0
2018-Feb-20 05:30N 54°18' W 130°21'4 7.1
2018-Feb-20 04:59N 54°14' W 130°20'0 0.0
2018-Feb-20 04:29N 54°14' W 130°20'2 3.3
2018-Feb-20 04:00N 54°15' W 130°21'0 0.2
2018-Feb-20 03:30N 54°15' W 130°21'1 2.7
2018-Feb-20 03:00N 54°14' W 130°21'0 0.5
2018-Feb-20 02:27N 54°14' W 130°20'0 0.0
2018-Feb-20 02:00N 54°14' W 130°20'4 7.2
2018-Feb-20 01:30N 54°17' W 130°22'0 0.4
2018-Feb-20 01:00N 54°18' W 130°21'0 0.0
2018-Feb-20 00:24N 54°18' W 130°21'0 0.0
2018-Feb-20 00:00N 54°18' W 130°21'0 0.0
2018-Feb-19 23:30N 54°18' W 130°21'0 0.0
2018-Feb-19 23:00N 54°18' W 130°21'0 0.0
2018-Feb-19 22:30N 54°18' W 130°21'0 0.0
2018-Feb-19 22:00N 54°18' W 130°21'0 0.0
2018-Feb-19 21:24N 54°18' W 130°21'0 0.0
2018-Feb-19 21:00N 54°18' W 130°21'0 0.0
2018-Feb-19 20:30N 54°18' W 130°21'0 0.0
2018-Feb-19 20:00N 54°18' W 130°21'0 0.0
2018-Feb-19 19:30N 54°18' W 130°21'0 0.0
2018-Feb-19 19:00N 54°18' W 130°21'0 0.0
2018-Feb-19 18:30N 54°18' W 130°21'0 0.0
2018-Feb-19 18:00N 54°18' W 130°21'0 0.0
2018-Feb-19 17:30N 54°18' W 130°21'0 0.0
2018-Feb-19 17:00N 54°18' W 130°21'0 0.0
2018-Feb-19 16:27N 54°18' W 130°21'0 0.0
2018-Feb-19 15:57N 54°18' W 130°21'0 0.0
2018-Feb-19 15:27N 54°18' W 130°21'0 0.0
2018-Feb-19 14:57N 54°18' W 130°21'0 0.0
2018-Feb-19 14:12N 54°18' W 130°21'0 0.0
2018-Feb-19 14:00N 54°18' W 130°21'0 0.0
2018-Feb-19 13:30N 54°18' W 130°21'0 0.0
2018-Feb-19 12:57N 54°18' W 130°21'0 0.0
2018-Feb-19 12:27N 54°18' W 130°21'0 0.0
2018-Feb-19 11:54N 54°18' W 130°21'0 0.0
2018-Feb-19 11:30N 54°18' W 130°21'0 0.0
2018-Feb-19 11:00N 54°18' W 130°21'0 0.0
2018-Feb-19 10:30N 54°18' W 130°21'0 0.0
2018-Feb-19 10:00N 54°18' W 130°21'0 0.0
2018-Feb-19 09:30N 54°18' W 130°21'0 0.0
2018-Feb-19 09:00N 54°18' W 130°21'0 0.0
2018-Feb-19 08:24N 54°18' W 130°21'0 0.0
2018-Feb-19 08:00N 54°18' W 130°21'0 0.0
2018-Feb-19 07:30N 54°18' W 130°21'0 0.0
2018-Feb-19 07:00N 54°18' W 130°21'0 0.0
2018-Feb-19 06:30N 54°18' W 130°21'0 0.0
2018-Feb-19 06:00N 54°18' W 130°21'0 0.0
2018-Feb-19 05:30N 54°18' W 130°21'0 0.0
2018-Feb-19 04:54N 54°18' W 130°21'0 0.0
2018-Feb-19 04:21N 54°18' W 130°21'0 0.0
2018-Feb-19 03:48N 54°18' W 130°21'0 0.0
2018-Feb-19 03:30N 54°18' W 130°21'0 0.0
2018-Feb-19 03:00N 54°18' W 130°21'0 0.0
2018-Feb-19 02:27N 54°18' W 130°21'0 0.0
2018-Feb-19 01:57N 54°18' W 130°21'0 0.0
2018-Feb-18 21:30N 54°18' W 130°21'0 0.0
2018-Feb-18 20:48N 54°18' W 130°21'0 0.0
2018-Feb-18 20:18N 54°18' W 130°21'0 0.0
2018-Feb-18 20:00N 54°18' W 130°21'0 0.0
2018-Feb-18 19:30N 54°18' W 130°21'0 0.0
2018-Feb-18 19:00N 54°18' W 130°21'0 0.0
2018-Feb-18 18:30N 54°18' W 130°21'0 0.0
2018-Feb-18 18:00N 54°18' W 130°21'0 0.0
2018-Feb-18 17:30N 54°18' W 130°21'0 0.0
2018-Feb-18 17:00N 54°18' W 130°21'0 0.0
2018-Feb-18 16:15N 54°18' W 130°21'0 0.0
2018-Feb-18 16:00N 54°18' W 130°21'0 0.0
2018-Feb-18 15:18N 54°18' W 130°21'1 3.6
2018-Feb-18 15:00N 54°17' W 130°22'3 5.1
2018-Feb-18 14:28N 54°14' W 130°20'0 0.0
2018-Feb-18 13:58N 54°14' W 130°20'0 0.8
2018-Feb-18 13:30N 54°14' W 130°21'0 0.8
2018-Feb-18 12:58N 54°14' W 130°20'2 4.6
2018-Feb-18 12:30N 54°13' W 130°24'4 8.4
2018-Feb-18 12:00N 54°12' W 130°31'612.3
2018-Feb-18 11:30N 54°15' W 130°21'3 5.2
2018-Feb-18 11:00N 54°18' W 130°21'0 0.6
2018-Feb-18 10:30N 54°17' W 130°22'0 1.0
2018-Feb-18 10:00N 54°18' W 130°22'0 0.8
2018-Feb-18 09:23N 54°18' W 130°22'0 0.0
2018-Feb-18 08:47N 54°18' W 130°22'0 0.4
2018-Feb-18 08:29N 54°18' W 130°22'0 0.2
2018-Feb-18 07:59N 54°18' W 130°22'1 1.0
2018-Feb-18 07:28N 54°18' W 130°22'3 6.1
2018-Feb-18 07:00N 54°15' W 130°21'3 6.2
2018-Feb-18 06:30N 54°12' W 130°21'2 4.2
2018-Feb-18 06:00N 54°14' W 130°21'3 6.8
2018-Feb-18 05:30N 54°18' W 130°21'0 0.0
2018-Feb-18 05:00N 54°18' W 130°21'0 0.0
2018-Feb-18 04:27N 54°18' W 130°21'0 0.0
2018-Feb-18 04:00N 54°18' W 130°21'0 0.0
2018-Feb-18 03:30N 54°18' W 130°21'0 0.0
2018-Feb-18 03:00N 54°18' W 130°21'0 0.0
2018-Feb-18 02:30N 54°18' W 130°21'0 0.0
2018-Feb-18 02:00N 54°18' W 130°21'0 0.0
2018-Feb-18 01:30N 54°18' W 130°21'0 0.0
2018-Feb-18 01:00N 54°18' W 130°21'0 0.0
2018-Feb-18 00:30N 54°18' W 130°21'0 0.0
2018-Feb-17 23:57N 54°18' W 130°21'0 0.0
2018-Feb-17 23:24N 54°18' W 130°21'0 0.0
2018-Feb-17 23:00N 54°18' W 130°21'0 0.0
2018-Feb-17 22:27N 54°18' W 130°21'0 0.0
2018-Feb-17 22:00N 54°18' W 130°21'0 0.0
2018-Feb-17 19:33N 54°18' W 130°21'0 0.0
2018-Feb-17 19:21N 54°18' W 130°21'0 0.0
2018-Feb-17 18:57N 54°18' W 130°21'0 0.0
2018-Feb-17 18:30N 54°18' W 130°21'0 0.0
2018-Feb-17 17:48N 54°18' W 130°21'0 0.0
2018-Feb-17 17:30N 54°18' W 130°21'0 0.0
2018-Feb-17 16:57N 54°18' W 130°21'0 0.0
2018-Feb-17 16:27N 54°18' W 130°21'0 0.0
2018-Feb-17 16:00N 54°18' W 130°21'0 0.0
2018-Feb-17 15:21N 54°18' W 130°21'0 0.0
2018-Feb-17 14:57N 54°18' W 130°21'0 0.0
2018-Feb-17 14:30N 54°18' W 130°21'0 0.0
2018-Feb-17 13:57N 54°18' W 130°21'0 0.0
2018-Feb-17 13:30N 54°18' W 130°21'0 0.0
2018-Feb-17 13:00N 54°18' W 130°21'0 0.0
2018-Feb-17 12:30N 54°18' W 130°21'0 0.0
2018-Feb-17 11:03N 54°18' W 130°21'0 0.0
2018-Feb-17 11:00N 54°18' W 130°21'0 0.0
2018-Feb-17 10:30N 54°18' W 130°21'0 0.0
2018-Feb-17 09:48N 54°18' W 130°21'0 0.0
2018-Feb-17 09:30N 54°18' W 130°21'0 0.0
2018-Feb-17 08:54N 54°18' W 130°21'0 0.0
2018-Feb-17 08:27N 54°18' W 130°21'0 0.0
2018-Feb-17 07:57N 54°18' W 130°21'0 0.0
2018-Feb-17 07:30N 54°18' W 130°21'0 0.0
2018-Feb-17 06:09N 54°18' W 130°21'0 0.0
2018-Feb-17 06:00N 54°18' W 130°21'0 0.0
2018-Feb-17 05:21N 54°18' W 130°21'0 0.0
2018-Feb-17 05:00N 54°18' W 130°21'0 0.0
2018-Feb-17 04:30N 54°18' W 130°21'0 0.0
2018-Feb-17 04:00N 54°18' W 130°21'0 0.0
2018-Feb-17 03:30N 54°18' W 130°21'0 0.0
2018-Feb-17 03:00N 54°18' W 130°21'0 0.0
2018-Feb-17 02:27N 54°18' W 130°21'0 0.0
2018-Feb-17 01:57N 54°18' W 130°21'0 0.0
2018-Feb-17 01:30N 54°18' W 130°21'0 0.0
2018-Feb-17 00:51N 54°18' W 130°21'0 0.0
2018-Feb-17 00:30N 54°18' W 130°21'0 0.0
2018-Feb-17 00:00N 54°18' W 130°21'0 0.0
2018-Feb-16 23:30N 54°18' W 130°21'0 0.0
2018-Feb-16 23:00N 54°18' W 130°21'0 0.0
2018-Feb-16 22:27N 54°18' W 130°21'0 0.0
2018-Feb-16 21:57N 54°18' W 130°21'0 0.0
2018-Feb-16 21:27N 54°18' W 130°21'0 0.0
2018-Feb-16 20:51N 54°18' W 130°21'0 0.0
2018-Feb-16 20:21N 54°18' W 130°21'0 0.0
2018-Feb-16 19:57N 54°18' W 130°21'0 0.0
2018-Feb-16 19:27N 54°18' W 130°21'0 0.0
2018-Feb-16 18:57N 54°18' W 130°21'0 0.0
2018-Feb-16 18:27N 54°18' W 130°21'0 0.0
2018-Feb-16 17:57N 54°18' W 130°21'0 0.0
2018-Feb-16 17:30N 54°18' W 130°21'0 0.0
2018-Feb-16 16:57N 54°18' W 130°21'0 0.0
2018-Feb-16 16:21N 54°18' W 130°21'0 0.0
2018-Feb-16 15:57N 54°18' W 130°21'0 0.1
2018-Feb-16 15:30N 54°18' W 130°21'4 7.8
2018-Feb-16 14:59N 54°14' W 130°20'0 0.0
2018-Feb-16 14:29N 54°14' W 130°20'0 0.2
2018-Feb-16 13:59N 54°14' W 130°20'1 1.1
2018-Feb-16 13:29N 54°13' W 130°21'1 1.2
2018-Feb-16 13:01N 54°13' W 130°21'5 9.4
2018-Feb-16 12:30N 54°11' W 130°29'5 9.7
2018-Feb-16 12:00N 54°07' W 130°35'4 7.3
2018-Feb-16 11:30N 54°10' W 130°31'612.6
2018-Feb-16 11:00N 54°13' W 130°21'4 7.6
2018-Feb-16 10:25N 54°18' W 130°21'0 0.0
2018-Feb-16 09:58N 54°18' W 130°21'0 0.0
2018-Feb-16 09:25N 54°18' W 130°21'0 0.0
2018-Feb-16 08:55N 54°18' W 130°21'0 0.0
2018-Feb-16 08:28N 54°18' W 130°21'0 0.0
2018-Feb-16 07:52N 54°18' W 130°21'0 0.0
2018-Feb-16 07:28N 54°18' W 130°21'0 0.0
2018-Feb-16 06:58N 54°18' W 130°21'0 0.0
2018-Feb-16 06:01N 54°18' W 130°21'0 0.0
2018-Feb-16 05:49N 54°18' W 130°21'0 0.0
2018-Feb-16 05:28N 54°18' W 130°21'0 0.0
2018-Feb-16 04:52N 54°18' W 130°21'0 0.0
2018-Feb-16 04:28N 54°18' W 130°21'0 0.0
2018-Feb-16 03:58N 54°18' W 130°21'0 0.0
2018-Feb-16 03:25N 54°18' W 130°21'0 0.0
2018-Feb-16 02:58N 54°18' W 130°21'0 0.0
2018-Feb-16 01:37N 54°18' W 130°21'0 0.0
2018-Feb-16 01:07N 54°18' W 130°21'  

Dump ship's entire track history